Terminal Aerodrome Forecast
Issued by NWS Amarillo, TX

Home | Current Version | Previous Version | Text Only | Print | Product List | Glossary On
Versions: 1 2 3 4 5 6 7 8 9 10 11 12 13 14
000
FTUS44 KAMA 201727
TAFDHT
TAF
KDHT 201727Z 2018/2118 35022G30KT P6SM SKC
     FM210000 33009KT P6SM SKC
     FM211100 25008KT P6SM SKC=

USA.gov is the U.S. government's official web portal to all federal, state and local government web resources and services.